createdAt,value
2018-08-12T00:00:59.568Z,18.60
2018-08-12T00:03:27.648Z,18.20
2018-08-12T00:05:55.729Z,18.80
2018-08-12T00:08:24.004Z,18.70
2018-08-12T00:10:52.077Z,17.10
2018-08-12T00:13:20.152Z,17.10
2018-08-12T00:15:48.245Z,17.60
2018-08-12T00:18:16.336Z,18.80
2018-08-12T00:20:44.409Z,19.90
2018-08-12T00:23:12.488Z,19.00
2018-08-12T00:25:40.561Z,18.50
2018-08-12T00:28:08.860Z,19.40
2018-08-12T00:30:36.936Z,19.90
2018-08-12T00:33:05.056Z,19.90
2018-08-12T00:35:33.124Z,19.90
2018-08-12T00:38:01.241Z,20.60
2018-08-12T00:40:29.326Z,21.60
2018-08-12T00:42:57.392Z,21.70
2018-08-12T00:45:25.473Z,20.40
2018-08-12T00:47:53.572Z,20.70
2018-08-12T00:50:21.645Z,20.70
2018-08-12T00:52:49.725Z,20.40
2018-08-12T00:55:18.357Z,20.40
2018-08-12T00:57:47.481Z,20.70
2018-08-12T01:00:17.572Z,20.30
2018-08-12T01:02:45.671Z,19.80
2018-08-12T01:05:15.249Z,19.90
2018-08-12T01:07:44.021Z,20.40
2018-08-12T01:10:12.628Z,19.60
2018-08-12T01:12:40.726Z,20.60
2018-08-12T01:15:11.257Z,21.10
2018-08-12T01:17:39.516Z,21.90
2018-08-12T01:20:08.821Z,21.90
2018-08-12T01:22:37.388Z,21.40
2018-08-12T01:25:05.996Z,20.90
2018-08-12T01:27:34.332Z,21.00
2018-08-12T01:30:02.422Z,22.00
2018-08-12T01:32:30.508Z,21.30
2018-08-12T01:34:58.593Z,21.10
2018-08-12T01:37:26.670Z,21.70
2018-08-12T01:39:54.772Z,22.30
2018-08-12T01:42:22.845Z,22.80
2018-08-12T01:44:50.933Z,22.20
2018-08-12T01:47:19.009Z,22.00
2018-08-12T01:49:47.108Z,21.70
2018-08-12T01:52:15.188Z,21.10
2018-08-12T01:54:43.285Z,21.60
2018-08-12T01:57:11.363Z,21.50
2018-08-12T01:59:39.454Z,22.70
2018-08-12T02:02:07.541Z,20.90
2018-08-12T02:04:35.627Z,20.20
2018-08-12T02:07:03.708Z,20.00
2018-08-12T02:09:31.807Z,19.80
2018-08-12T02:11:59.889Z,21.80
2018-08-12T02:14:27.973Z,21.10
2018-08-12T02:16:56.044Z,21.70
2018-08-12T02:19:24.145Z,21.90
2018-08-12T02:21:52.233Z,22.30
2018-08-12T02:24:20.320Z,22.20
2018-08-12T02:26:48.396Z,22.40
2018-08-12T02:29:16.497Z,23.40
2018-08-12T02:31:44.573Z,22.20
2018-08-12T02:34:12.653Z,20.70
2018-08-12T02:36:40.753Z,20.10
2018-08-12T02:39:10.605Z,21.70
2018-08-12T02:41:38.713Z,21.10
2018-08-12T02:44:06.845Z,21.60
2018-08-12T02:46:34.949Z,21.80
2018-08-12T02:49:03.957Z,21.40
2018-08-12T02:51:32.054Z,21.30
2018-08-12T02:54:00.141Z,22.10
2018-08-12T02:56:28.241Z,23.20
2018-08-12T02:58:56.351Z,22.10
2018-08-12T03:01:24.429Z,22.10
2018-08-12T03:03:52.666Z,23.10
2018-08-12T03:06:20.732Z,22.40
2018-08-12T03:08:48.818Z,22.40
2018-08-12T03:11:16.900Z,22.70
2018-08-12T03:13:44.984Z,21.80
2018-08-12T03:16:13.062Z,22.40
2018-08-12T03:18:41.135Z,21.80
2018-08-12T03:21:09.236Z,23.00
2018-08-12T03:23:37.306Z,24.30
2018-08-12T03:26:05.400Z,23.00
2018-08-12T03:28:33.480Z,23.60
2018-08-12T03:31:01.561Z,24.00
2018-08-12T03:33:29.638Z,23.60
2018-08-12T03:35:57.712Z,24.70
2018-08-12T03:38:25.945Z,23.70
2018-08-12T03:40:54.027Z,23.80
2018-08-12T03:43:22.105Z,24.20
2018-08-12T03:45:50.197Z,23.80
2018-08-12T03:48:18.283Z,23.70
2018-08-12T03:50:46.374Z,24.40
2018-08-12T03:53:14.463Z,25.30
2018-08-12T03:55:42.565Z,25.20
2018-08-12T03:58:10.672Z,25.90
2018-08-12T04:00:38.768Z,25.40
2018-08-12T04:03:06.836Z,25.20
2018-08-12T04:05:34.925Z,25.90
2018-08-12T04:08:03.017Z,26.10
2018-08-12T04:10:31.112Z,26.20
2018-08-12T04:12:59.206Z,26.10
2018-08-12T04:15:27.284Z,26.20
2018-08-12T04:17:55.365Z,26.10
2018-08-12T04:20:23.460Z,26.20
2018-08-12T04:22:51.549Z,26.40
2018-08-12T04:25:19.629Z,26.80
2018-08-12T04:27:47.711Z,27.20
2018-08-12T04:30:15.800Z,26.20
2018-08-12T04:32:43.892Z,26.50
2018-08-12T04:35:11.990Z,26.80
2018-08-12T04:37:40.074Z,26.70
2018-08-12T04:40:08.461Z,27.20
2018-08-12T04:42:36.553Z,27.10
2018-08-12T04:45:05.193Z,26.70
2018-08-12T04:47:33.264Z,26.80
2018-08-12T04:50:01.357Z,26.70
2018-08-12T04:52:29.438Z,27.20
2018-08-12T04:54:57.562Z,27.40
2018-08-12T04:57:25.652Z,27.90
2018-08-12T04:59:53.775Z,28.30
2018-08-12T05:02:21.876Z,28.20
2018-08-12T05:04:49.962Z,28.30
2018-08-12T05:07:18.048Z,29.20
2018-08-12T05:09:46.116Z,29.80
2018-08-12T05:12:14.204Z,29.30
2018-08-12T05:14:42.302Z,28.80
2018-08-12T05:17:10.406Z,28.60
2018-08-12T05:19:38.469Z,27.70
2018-08-12T05:22:06.704Z,27.30
2018-08-12T05:24:34.790Z,27.50
2018-08-12T05:27:02.881Z,28.20
2018-08-12T05:29:31.280Z,27.90
2018-08-12T05:31:59.370Z,27.60
2018-08-12T05:34:27.440Z,27.50
2018-08-12T05:36:55.528Z,26.40
2018-08-12T05:39:23.628Z,25.20
2018-08-12T05:41:51.709Z,24.20
2018-08-12T05:44:19.805Z,24.00
2018-08-12T05:46:47.893Z,23.70
2018-08-12T05:49:15.978Z,23.80
2018-08-12T05:51:44.088Z,23.70
2018-08-12T05:54:12.166Z,23.20
2018-08-12T05:56:40.261Z,23.00
2018-08-12T05:59:08.355Z,23.10
2018-08-12T06:01:36.449Z,23.20
2018-08-12T06:04:04.533Z,23.20
2018-08-12T06:06:32.637Z,22.40
2018-08-12T06:09:00.792Z,21.50
2018-08-12T06:11:29.108Z,21.50
2018-08-12T06:13:57.177Z,23.40
2018-08-12T06:16:25.264Z,21.10
2018-08-12T06:18:53.376Z,20.40
2018-08-12T06:21:21.457Z,19.80
2018-08-12T06:23:49.556Z,21.00
2018-08-12T06:26:17.641Z,19.90
2018-08-12T06:28:45.738Z,19.40
2018-08-12T06:31:14.009Z,20.80
2018-08-12T06:33:42.127Z,20.10
2018-08-12T06:36:10.221Z,19.50
2018-08-12T06:38:38.325Z,20.30
2018-08-12T06:41:06.417Z,21.50
2018-08-12T06:43:34.517Z,21.50
2018-08-12T06:46:02.690Z,21.10
2018-08-12T06:48:30.802Z,20.30
2018-08-12T06:50:58.900Z,20.70
2018-08-12T06:53:27.018Z,21.20
2018-08-12T06:55:55.126Z,20.50
2018-08-12T06:58:23.230Z,20.60
2018-08-12T07:00:51.313Z,20.70
2018-08-12T07:03:19.424Z,20.70
2018-08-12T07:05:47.527Z,20.80
2018-08-12T07:08:15.632Z,19.40
2018-08-12T07:10:43.741Z,19.80
2018-08-12T07:13:11.864Z,20.60
2018-08-12T07:15:39.984Z,19.90
2018-08-12T07:18:08.079Z,20.00
2018-08-12T07:20:36.189Z,18.70
2018-08-12T07:23:04.276Z,17.90
2018-08-12T07:25:32.361Z,18.20
2018-08-12T07:28:00.453Z,18.60
2018-08-12T07:30:28.545Z,16.90
2018-08-12T07:32:56.641Z,16.80
2018-08-12T07:35:24.725Z,16.50
2018-08-12T07:37:52.818Z,16.40
2018-08-12T07:40:21.500Z,17.80
2018-08-12T07:42:50.916Z,15.80
2018-08-12T07:45:19.140Z,15.00
2018-08-12T07:47:47.230Z,15.40
2018-08-12T07:50:15.308Z,15.80
2018-08-12T07:52:44.416Z,15.20
2018-08-12T07:55:13.204Z,16.10
2018-08-12T07:57:42.113Z,16.90
2018-08-12T08:00:13.446Z,16.70
2018-08-12T08:02:41.560Z,15.50
2018-08-12T08:05:09.668Z,14.60
2018-08-12T08:07:38.077Z,14.90
2018-08-12T08:10:11.257Z,14.90
2018-08-12T08:12:39.724Z,15.60
2018-08-12T08:15:10.479Z,16.80
2018-08-12T08:17:39.156Z,16.90
2018-08-12T08:20:08.452Z,16.40
2018-08-12T08:22:36.695Z,15.80
2018-08-12T08:25:05.058Z,15.40
2018-08-12T08:27:33.144Z,15.00
2018-08-12T08:30:01.239Z,13.30
2018-08-12T08:32:29.345Z,15.50
2018-08-12T08:34:57.616Z,15.10
2018-08-12T08:37:25.861Z,16.40
2018-08-12T08:39:53.959Z,14.20
2018-08-12T08:42:22.048Z,13.30
2018-08-12T08:44:50.144Z,12.40
2018-08-12T08:47:18.425Z,11.60
2018-08-12T08:49:46.567Z,12.50
2018-08-12T08:52:14.613Z,11.80
2018-08-12T08:54:42.716Z,12.20
2018-08-12T08:57:10.787Z,11.90
2018-08-12T08:59:38.875Z,12.00
2018-08-12T09:02:06.936Z,9.90
2018-08-12T09:04:35.043Z,9.10
2018-08-12T09:07:03.141Z,9.60
2018-08-12T09:09:31.237Z,12.10
2018-08-12T09:11:59.316Z,12.00
2018-08-12T09:14:27.428Z,11.50
2018-08-12T09:16:55.504Z,9.10
2018-08-12T09:19:23.593Z,9.70
2018-08-12T09:21:51.673Z,8.20
2018-08-12T09:24:19.852Z,7.90
2018-08-12T09:26:47.928Z,8.50
2018-08-12T09:29:16.033Z,9.50
2018-08-12T09:31:44.098Z,8.70
2018-08-12T09:34:12.181Z,6.80
2018-08-12T09:36:40.258Z,6.20
2018-08-12T09:39:10.204Z,10.00
2018-08-12T09:41:38.276Z,8.90
2018-08-12T09:44:06.541Z,6.90
2018-08-12T09:46:34.905Z,7.20
2018-08-12T09:49:03.002Z,7.70
2018-08-12T09:51:31.556Z,9.10
2018-08-12T09:53:59.959Z,7.40
2018-08-12T09:56:28.856Z,4.60
2018-08-12T09:58:56.989Z,6.70
2018-08-12T10:01:25.073Z,5.90
2018-08-12T10:03:53.205Z,5.20
2018-08-12T10:06:21.320Z,3.10
2018-08-12T10:08:49.396Z,4.30
2018-08-12T10:11:17.480Z,3.10
2018-08-12T10:13:45.636Z,3.00
2018-08-12T10:16:13.781Z,5.40
2018-08-12T10:18:42.837Z,7.80
2018-08-12T10:21:10.974Z,5.50
2018-08-12T10:23:39.064Z,1.60
2018-08-12T10:26:07.150Z,5.10
2018-08-12T10:28:35.238Z,6.00
2018-08-12T10:31:03.341Z,2.40
2018-08-12T10:33:31.411Z,5.80
2018-08-12T10:35:59.509Z,5.90
2018-08-12T10:38:27.660Z,5.60
2018-08-12T10:40:55.730Z,5.40
2018-08-12T10:43:23.798Z,6.00
2018-08-12T10:45:51.887Z,3.80
2018-08-12T10:48:19.957Z,1.00
2018-08-12T10:50:48.095Z,1.00
2018-08-12T10:53:16.160Z,1.00
2018-08-12T10:55:44.389Z,1.00
2018-08-12T10:58:12.473Z,1.00
2018-08-12T11:00:40.598Z,1.00
2018-08-12T11:03:08.669Z,1.00
2018-08-12T11:05:36.766Z,1.00
2018-08-12T11:08:04.897Z,1.00
2018-08-12T11:10:33.009Z,1.00
2018-08-12T11:13:01.105Z,1.00
2018-08-12T11:15:29.214Z,1.00
2018-08-12T11:17:57.312Z,1.00
2018-08-12T11:20:25.413Z,1.00
2018-08-12T11:22:53.509Z,1.00
2018-08-12T11:25:21.614Z,1.00
2018-08-12T11:27:49.689Z,1.00
2018-08-12T11:30:18.257Z,1.00
2018-08-12T11:32:46.545Z,1.00
2018-08-12T11:35:15.932Z,1.00
2018-08-12T11:37:44.447Z,1.00
2018-08-12T11:40:13.650Z,1.00
2018-08-12T11:42:41.816Z,1.00
2018-08-12T11:45:12.415Z,1.00
2018-08-12T11:47:41.234Z,1.10
2018-08-12T11:50:10.441Z,1.00
2018-08-12T11:52:39.140Z,1.00
2018-08-12T11:55:08.932Z,1.00
2018-08-12T11:57:37.390Z,1.00
2018-08-12T12:00:15.731Z,1.00
2018-08-12T12:02:44.717Z,1.00
2018-08-12T12:05:13.504Z,1.00
2018-08-12T12:07:41.746Z,1.00
2018-08-12T12:10:13.190Z,1.00
2018-08-12T12:12:42.492Z,1.00
2018-08-12T12:15:11.456Z,1.00
2018-08-12T12:17:39.497Z,1.00
2018-08-12T12:20:09.411Z,1.00
2018-08-12T12:22:38.498Z,1.00
2018-08-12T12:25:08.011Z,1.00
2018-08-12T12:27:36.164Z,1.00
2018-08-12T12:30:05.561Z,1.00
2018-08-12T12:32:33.637Z,1.00
2018-08-12T12:35:01.717Z,1.00
2018-08-12T12:37:29.796Z,1.00
2018-08-12T12:39:57.905Z,1.00
2018-08-12T12:42:26.026Z,1.00
2018-08-12T12:44:54.125Z,1.00
2018-08-12T12:47:22.334Z,1.00
2018-08-12T12:49:50.426Z,1.00
2018-08-12T12:52:18.518Z,1.00
2018-08-12T12:54:46.628Z,1.00
2018-08-12T12:57:14.709Z,1.00
2018-08-12T12:59:42.796Z,1.00
2018-08-12T13:02:10.871Z,1.00
2018-08-12T13:04:38.950Z,1.00
2018-08-12T13:07:07.058Z,1.00
2018-08-12T13:09:35.169Z,1.00
2018-08-12T13:12:03.261Z,1.00
2018-08-12T13:14:31.357Z,1.00
2018-08-12T13:16:59.459Z,1.00
2018-08-12T13:19:27.524Z,1.00
2018-08-12T13:21:55.632Z,1.00
2018-08-12T13:24:23.742Z,1.00
2018-08-12T13:26:51.837Z,1.00
2018-08-12T13:29:19.921Z,1.00
2018-08-12T13:31:48.021Z,1.00
2018-08-12T13:34:16.127Z,1.00
2018-08-12T13:36:44.217Z,1.00
2018-08-12T13:39:13.309Z,1.00
2018-08-12T13:41:41.460Z,1.00
2018-08-12T13:44:09.562Z,1.00
2018-08-12T13:46:37.790Z,1.00
2018-08-12T13:49:06.002Z,1.00
2018-08-12T13:51:34.101Z,1.00
2018-08-12T13:54:02.393Z,1.00
2018-08-12T13:56:30.628Z,1.00
2018-08-12T13:58:58.881Z,1.00
2018-08-12T14:01:27.005Z,1.00
2018-08-12T14:03:55.106Z,1.00
2018-08-12T14:06:23.227Z,1.00
2018-08-12T14:08:51.353Z,1.00
2018-08-12T14:11:19.436Z,1.00
2018-08-12T14:13:47.537Z,1.00
2018-08-12T14:16:15.661Z,1.00
2018-08-12T14:18:43.749Z,1.00
2018-08-12T14:21:11.881Z,1.00
2018-08-12T14:23:39.953Z,1.00
2018-08-12T14:26:08.061Z,1.00
2018-08-12T14:28:36.143Z,1.00
2018-08-12T14:31:04.241Z,1.00
2018-08-12T14:33:32.661Z,1.00
2018-08-12T14:36:00.748Z,1.00
2018-08-12T14:38:28.833Z,1.00
2018-08-12T14:40:56.904Z,1.00
2018-08-12T14:43:25.040Z,1.00
2018-08-12T14:45:53.081Z,1.00
2018-08-12T14:48:21.201Z,1.00
2018-08-12T14:50:49.362Z,1.00
2018-08-12T14:53:17.449Z,1.00
2018-08-12T14:55:45.550Z,1.00
2018-08-12T14:58:13.620Z,1.00
2018-08-12T15:00:41.733Z,1.00
2018-08-12T15:03:09.826Z,1.00
2018-08-12T15:05:37.929Z,1.00
2018-08-12T15:08:06.017Z,1.00
2018-08-12T15:10:34.100Z,1.00
2018-08-12T15:13:02.188Z,1.00
2018-08-12T15:15:30.281Z,1.00
2018-08-12T15:17:58.377Z,1.00
2018-08-12T15:20:26.467Z,1.00
2018-08-12T15:22:54.681Z,1.00
2018-08-12T15:25:22.688Z,1.00
2018-08-12T15:27:50.764Z,1.00
2018-08-12T15:30:18.928Z,1.00
2018-08-12T15:32:47.022Z,1.00
2018-08-12T15:35:15.100Z,1.00
2018-08-12T15:37:43.190Z,1.00
2018-08-12T15:40:12.805Z,1.00
2018-08-12T15:42:41.229Z,1.00
2018-08-12T15:45:11.537Z,1.00
2018-08-12T15:47:40.132Z,1.00
2018-08-12T15:50:09.238Z,1.00
2018-08-12T15:52:37.405Z,1.00
2018-08-12T15:55:05.574Z,1.00
2018-08-12T15:57:33.668Z,1.00
2018-08-12T16:00:01.754Z,1.00
2018-08-12T16:02:30.230Z,1.00
2018-08-12T16:04:58.300Z,1.00
2018-08-12T16:07:26.390Z,1.00
2018-08-12T16:09:54.452Z,1.00
2018-08-12T16:12:22.536Z,1.00
2018-08-12T16:14:50.629Z,1.00
2018-08-12T16:17:18.710Z,1.00
2018-08-12T16:19:46.789Z,1.00
2018-08-12T16:22:14.901Z,1.00
2018-08-12T16:24:42.965Z,1.00
2018-08-12T16:27:11.052Z,1.00
2018-08-12T16:29:39.129Z,1.00
2018-08-12T16:32:07.234Z,1.00
2018-08-12T16:34:35.316Z,1.00
2018-08-12T16:37:03.701Z,1.00
2018-08-12T16:39:31.842Z,1.00
2018-08-12T16:41:59.985Z,1.00
2018-08-12T16:44:28.065Z,1.00
2018-08-12T16:46:56.151Z,1.00
2018-08-12T16:49:24.260Z,1.00
2018-08-12T16:51:52.336Z,1.00
2018-08-12T16:54:20.425Z,1.00
2018-08-12T16:56:48.542Z,1.00
2018-08-12T16:59:16.617Z,1.00
2018-08-12T17:01:44.709Z,1.00
2018-08-12T17:04:12.910Z,1.00
2018-08-12T17:06:40.916Z,1.00
2018-08-12T17:09:10.648Z,1.00
2018-08-12T17:11:38.728Z,1.00
2018-08-12T17:14:07.417Z,1.00
2018-08-12T17:16:35.550Z,1.00
2018-08-12T17:19:03.630Z,1.00
2018-08-12T17:21:31.709Z,1.00
2018-08-12T17:23:59.788Z,1.00
2018-08-12T17:26:27.957Z,1.00
2018-08-12T17:28:56.044Z,1.00
2018-08-12T17:31:24.394Z,1.00
2018-08-12T17:33:52.605Z,1.00
2018-08-12T17:36:20.717Z,1.00
2018-08-12T17:38:48.835Z,1.00
2018-08-12T17:41:16.869Z,1.00
2018-08-12T17:43:44.950Z,1.00
2018-08-12T17:46:13.033Z,1.00
2018-08-12T17:48:41.126Z,1.00
2018-08-12T17:51:09.220Z,1.00
2018-08-12T17:53:37.302Z,1.00
2018-08-12T17:56:05.397Z,1.00
2018-08-12T17:58:33.477Z,1.00
2018-08-12T18:01:01.553Z,1.00
2018-08-12T18:03:29.644Z,1.00
2018-08-12T18:05:58.002Z,1.00
2018-08-12T18:08:26.690Z,1.00
2018-08-12T18:10:54.892Z,1.00
2018-08-12T18:13:22.981Z,1.00
2018-08-12T18:15:51.048Z,1.00
2018-08-12T18:18:19.136Z,1.00
2018-08-12T18:20:47.224Z,1.00
2018-08-12T18:23:15.307Z,1.00
2018-08-12T18:25:43.380Z,1.00
2018-08-12T18:28:11.489Z,1.00
2018-08-12T18:30:39.564Z,1.00
2018-08-12T18:33:07.652Z,1.00
2018-08-12T18:35:35.872Z,1.00
2018-08-12T18:38:04.161Z,1.00
2018-08-12T18:40:32.233Z,1.00
2018-08-12T18:43:00.367Z,1.00
2018-08-12T18:45:28.437Z,1.00
2018-08-12T18:47:56.557Z,1.00
2018-08-12T18:50:24.636Z,1.00
2018-08-12T18:52:53.209Z,1.00
2018-08-12T18:55:21.272Z,1.00
2018-08-12T18:57:49.367Z,1.00
2018-08-12T19:00:17.454Z,1.00
2018-08-12T19:02:45.549Z,1.00
2018-08-12T19:05:13.969Z,1.00
2018-08-12T19:07:42.121Z,1.00
2018-08-12T19:10:11.028Z,1.00
2018-08-12T19:12:39.461Z,1.00
2018-08-12T19:15:08.702Z,1.00
2018-08-12T19:17:37.089Z,1.00
2018-08-12T19:20:06.137Z,1.00
2018-08-12T19:22:34.229Z,1.00
2018-08-12T19:25:02.681Z,1.00
2018-08-12T19:27:30.812Z,1.00
2018-08-12T19:29:58.954Z,1.00
2018-08-12T19:32:27.262Z,1.00
2018-08-12T19:34:55.366Z,1.00
2018-08-12T19:37:23.449Z,1.00
2018-08-12T19:39:51.532Z,1.00
2018-08-12T19:42:19.621Z,1.00
2018-08-12T19:44:49.118Z,1.00
2018-08-12T19:47:17.201Z,1.50
2018-08-12T19:49:45.362Z,1.00
2018-08-12T19:52:13.440Z,1.00
2018-08-12T19:54:41.592Z,1.00
2018-08-12T19:57:09.814Z,1.00
2018-08-12T19:59:37.902Z,1.00
2018-08-12T20:02:06.140Z,1.00
2018-08-12T20:04:34.234Z,1.00
2018-08-12T20:07:02.329Z,1.00
2018-08-12T20:09:30.419Z,1.00
2018-08-12T20:11:58.625Z,1.00
2018-08-12T20:14:26.576Z,1.00
2018-08-12T20:16:54.665Z,1.70
2018-08-12T20:19:22.736Z,1.00
2018-08-12T20:21:50.820Z,4.80
2018-08-12T20:24:18.904Z,6.60
2018-08-12T20:26:46.976Z,7.10
2018-08-12T20:29:15.074Z,6.30
2018-08-12T20:31:43.149Z,6.90
2018-08-12T20:34:11.229Z,6.20
2018-08-12T20:36:39.342Z,6.50
2018-08-12T20:39:10.364Z,6.50
2018-08-12T20:41:38.456Z,6.90
2018-08-12T20:44:06.556Z,7.90
2018-08-12T20:46:34.650Z,9.60
2018-08-12T20:49:02.851Z,9.20
2018-08-12T20:51:30.936Z,8.10
2018-08-12T20:53:59.040Z,8.60
2018-08-12T20:56:27.167Z,8.20
2018-08-12T20:58:55.245Z,7.10
2018-08-12T21:01:23.336Z,6.40
2018-08-12T21:03:51.400Z,6.10
2018-08-12T21:06:19.489Z,6.00
2018-08-12T21:08:47.556Z,7.70
2018-08-12T21:11:15.637Z,7.20
2018-08-12T21:13:43.706Z,6.90
2018-08-12T21:16:11.784Z,7.30
2018-08-12T21:18:40.100Z,7.30
2018-08-12T21:21:08.183Z,6.40
2018-08-12T21:23:36.257Z,9.20
2018-08-12T21:26:04.492Z,9.10
2018-08-12T21:28:32.521Z,9.10
2018-08-12T21:31:00.625Z,8.50
2018-08-12T21:33:28.746Z,8.40
2018-08-12T21:35:56.796Z,7.90
2018-08-12T21:38:24.873Z,6.70
2018-08-12T21:40:52.964Z,6.40
2018-08-12T21:43:21.066Z,9.30
2018-08-12T21:45:49.152Z,8.50
2018-08-12T21:48:17.235Z,9.90
2018-08-12T21:50:45.318Z,8.50
2018-08-12T21:53:13.398Z,8.70
2018-08-12T21:55:41.486Z,8.50
2018-08-12T21:58:09.569Z,8.20
2018-08-12T22:00:37.662Z,8.60
2018-08-12T22:03:06.114Z,8.50
2018-08-12T22:05:34.193Z,8.10
2018-08-12T22:08:08.697Z,7.90
2018-08-12T22:10:37.893Z,7.90
2018-08-12T22:13:06.378Z,7.20
2018-08-12T22:15:34.461Z,7.00
2018-08-12T22:18:02.569Z,7.30
2018-08-12T22:20:30.652Z,7.20
2018-08-12T22:22:58.758Z,6.90
2018-08-12T22:25:26.824Z,7.40
2018-08-12T22:27:54.921Z,6.80
2018-08-12T22:30:22.997Z,6.80
2018-08-12T22:32:51.088Z,6.90
2018-08-12T22:35:19.161Z,6.80
2018-08-12T22:37:47.262Z,6.80
2018-08-12T22:40:15.328Z,7.00
2018-08-12T22:42:43.416Z,7.00
2018-08-12T22:45:12.208Z,7.00
2018-08-12T22:47:40.812Z,7.10
2018-08-12T22:50:09.383Z,7.20
2018-08-12T22:52:37.660Z,7.20
2018-08-12T22:55:06.513Z,7.50
2018-08-12T22:57:34.600Z,8.50
2018-08-12T23:00:02.678Z,8.10
2018-08-12T23:02:30.782Z,8.00
2018-08-12T23:04:58.862Z,8.60
2018-08-12T23:07:26.940Z,8.00
2018-08-12T23:09:55.320Z,7.70
2018-08-12T23:12:23.407Z,9.80
2018-08-12T23:14:51.483Z,8.50
2018-08-12T23:17:19.581Z,8.30
2018-08-12T23:19:47.837Z,8.40
2018-08-12T23:22:15.922Z,8.50
2018-08-12T23:24:44.000Z,8.50
2018-08-12T23:27:12.098Z,10.00
2018-08-12T23:29:40.219Z,9.30
2018-08-12T23:32:08.313Z,9.80
2018-08-12T23:34:36.434Z,10.10
2018-08-12T23:37:04.673Z,9.60
2018-08-12T23:39:32.763Z,9.20
2018-08-12T23:42:00.870Z,10.80
2018-08-12T23:44:28.961Z,12.70
2018-08-12T23:46:57.042Z,13.90
2018-08-12T23:49:25.126Z,15.50
2018-08-12T23:51:53.197Z,13.50
2018-08-12T23:54:21.287Z,13.50
2018-08-12T23:56:49.374Z,13.90
2018-08-12T23:59:17.452Z,15.30
